Panama City, FL (32401)

6:08 PM CDT on April 23, 2018 (GMT -0500)
The Cove | | Change Station
Active Advisory: Coastal Hazard Statement Active Notice: Coastal Hazard Statement

Elev 15 ft 30.16 °N, 85.65 °W | Updated 9 seconds ago

Clear
Clear
69.8 °F
Feels Like 69.8 °F
N
0.0
Wind Variable Wind from WNW
Gusts 0.0 mph

Today
High -- | Low -- °F
--% Chance of Precip.
Yesterday
High -- | Low -- °F
Precip. -- in
Pressure 29.91 in
Visibility 10.0 miles
Clouds Clear
Dew Point 57 °F
Humidity 63%
Rainfall 0.00 in
Snow Depth Not available.
6:07 AM 7:15 PM
Waxing Gibbous, 62% visible
METAR KPAM 232256Z AUTO 27012KT 10SM CLR 21/13 A2990 RMK AO2 SLP128 T02120134 $
Pressure 29.91 in
Visibility 10.0 miles
Clouds Clear
Dew Point 57 °F
Humidity 63%
Rainfall 0.00 in
Snow Depth Not available.
6:07 AM 7:15 PM
Waxing Gibbous, 62% visible
METAR KPAM 232256Z AUTO 27012KT 10SM CLR 21/13 A2990 RMK AO2 SLP128 T02120134 $

Get Your Daily Forecast Email!

Thanks for signing up!

Be on the lookout for a verification email in your inbox.

You'll start receiving severe weather alerts in your inbox..

×

10-Day Weather Forecast

Almanac

Astronomy

Apr. 23, 2018 Rise Set
Actual Time
Civil Twilight
Nautical Twilight
Astronomical Twilight
Moon
Length of Visible Light
Length of Day
Tomorrow will be .
, % of the Moon is Illuminated

Today's Extremes

State Highs State Lows

Community

WunderPhotos

Category 6

Welcome to Category 6. This is the collective home for Weather Underground's featured writeups by Dr. Jeff Masters (right), Bob Henson (left), Chris Burt, and other regular contributors.

Nearby

Air Quality

  Air Quality AQ Index Pollutant
Not available.

Snow Depth

Station Depth Elevation

Earthquake Activity

City Distance Mag. Time & Date
Minimum magnitude displayed is 2.5.

Coastal Water Temperatures

Place Temperature

Stations

Nearby Weather Stations

Station Location Temp. Windchill Dew Point Humidity Wind Precip. Elev Updated Type
                   

Watches & Warnings

Coastal Hazard Statement
Issued: 3:04 AM CDT Apr. 23, 2018 – National Weather Service

... High rip current risk in effect through late tonight...

The National Weather Service in Tallahassee has issued a high rip
current risk, which is in effect through late tonight.

* Surf height... 2 to 3 feet.

Precautionary/preparedness actions...

There is a high risk of rip currents.

Rip currents are powerful channels of water flowing quickly away
from shore, which occur most often at low spots or breaks in The
Sandbar and in the vicinity of structures such as groins, jetties
and piers. Heed the advice of lifeguards, beach patrol flags and
signs.

If you become caught in a rip current, Yell for help. Remain
calm, do not exhaust yourself and stay afloat while waiting for
help. If you have to swim out of a rip current, swim parallel to
shore and back toward the beach when possible. Do not attempt to
swim directly against a rip current as you will tire quickly.